createdAt,value
2018-12-03T00:01:26.053Z,95115.00
2018-12-03T00:03:59.921Z,95120.00
2018-12-03T00:06:31.181Z,95114.00
2018-12-03T00:09:02.296Z,95114.00
2018-12-03T00:11:33.144Z,95112.00
2018-12-03T00:14:04.477Z,95110.00
2018-12-03T00:16:35.653Z,95114.00
2018-12-03T00:19:07.597Z,95117.00
2018-12-03T00:21:38.709Z,95117.00
2018-12-03T00:24:10.612Z,95122.00
2018-12-03T00:26:41.677Z,95120.00
2018-12-03T00:29:12.726Z,95121.00
2018-12-03T00:31:43.795Z,95118.00
2018-12-03T00:34:14.843Z,95118.00
2018-12-03T00:36:45.799Z,95122.00
2018-12-03T00:39:17.027Z,95118.00
2018-12-03T00:41:48.135Z,95119.00
2018-12-03T00:44:19.001Z,95118.00
2018-12-03T00:46:49.878Z,95119.00
2018-12-03T00:49:20.833Z,95120.00
2018-12-03T00:51:51.835Z,95122.00
2018-12-03T00:54:22.856Z,95113.00
2018-12-03T00:56:53.844Z,95101.00
2018-12-03T00:59:25.034Z,95102.00
2018-12-03T01:01:55.966Z,95098.00
2018-12-03T01:04:27.081Z,95085.00
2018-12-03T01:06:58.154Z,95081.00
2018-12-03T01:09:29.219Z,95074.00
2018-12-03T01:12:00.258Z,95075.00
2018-12-03T01:14:31.153Z,95077.00
2018-12-03T01:17:02.532Z,95081.00
2018-12-03T01:19:33.383Z,95076.00
2018-12-03T01:22:04.293Z,95072.00
2018-12-03T01:24:35.403Z,95066.00
2018-12-03T01:27:06.692Z,95077.00
2018-12-03T01:29:37.584Z,95072.00
2018-12-03T01:32:08.499Z,95077.00
2018-12-03T01:34:39.559Z,95077.00
2018-12-03T01:37:10.454Z,95081.00
2018-12-03T01:39:41.403Z,95074.00
2018-12-03T01:42:12.361Z,95073.00
2018-12-03T01:44:43.605Z,95067.00
2018-12-03T01:47:14.444Z,95070.00
2018-12-03T01:49:45.335Z,95060.00
2018-12-03T01:52:16.178Z,95056.00
2018-12-03T01:54:47.085Z,95051.00
2018-12-03T01:57:18.035Z,95053.00
2018-12-03T01:59:48.945Z,95052.00
2018-12-03T02:02:20.092Z,95044.00
2018-12-03T02:04:51.512Z,95047.00
2018-12-03T02:07:22.432Z,95044.00
2018-12-03T02:09:53.434Z,95042.00
2018-12-03T02:12:24.381Z,95040.00
2018-12-03T02:14:55.120Z,95037.00
2018-12-03T02:17:26.200Z,95038.00
2018-12-03T02:19:57.109Z,95032.00
2018-12-03T02:22:27.977Z,95031.00
2018-12-03T02:24:58.878Z,95024.00
2018-12-03T02:27:29.841Z,95028.00
2018-12-03T02:30:01.002Z,95030.00
2018-12-03T02:32:31.965Z,95026.00
2018-12-03T02:35:02.900Z,95026.00
2018-12-03T02:37:33.858Z,95023.00
2018-12-03T02:40:06.134Z,95022.00
2018-12-03T02:42:37.078Z,95015.00
2018-12-03T02:45:12.116Z,95014.00
2018-12-03T02:47:43.475Z,95015.00
2018-12-03T02:50:15.600Z,95020.00
2018-12-03T02:52:46.463Z,95018.00
2018-12-03T02:55:17.771Z,95018.00
2018-12-03T02:57:48.771Z,95013.00
2018-12-03T03:00:19.759Z,95008.00
2018-12-03T03:02:50.623Z,95014.00
2018-12-03T03:05:21.677Z,95011.00
2018-12-03T03:07:52.769Z,95013.00
2018-12-03T03:10:23.762Z,95013.00
2018-12-03T03:12:54.758Z,95016.00
2018-12-03T03:15:25.846Z,95023.00
2018-12-03T03:17:56.766Z,95026.00
2018-12-03T03:20:27.647Z,95031.00
2018-12-03T03:22:58.508Z,95029.00
2018-12-03T03:25:29.786Z,95037.00
2018-12-03T03:28:00.781Z,95041.00
2018-12-03T03:30:31.771Z,95045.00
2018-12-03T03:33:02.762Z,95049.00
2018-12-03T03:35:33.709Z,95050.00
2018-12-03T03:38:04.671Z,95051.00
2018-12-03T03:40:35.530Z,95054.00
2018-12-03T03:43:07.104Z,95055.00
2018-12-03T03:45:38.484Z,95053.00
2018-12-03T03:48:09.329Z,95048.00
2018-12-03T03:50:40.422Z,95041.00
2018-12-03T03:53:11.355Z,95041.00
2018-12-03T03:55:42.193Z,95037.00
2018-12-03T03:58:13.150Z,95041.00
2018-12-03T04:00:44.223Z,95043.00
2018-12-03T04:03:15.274Z,95040.00
2018-12-03T04:05:46.385Z,95044.00
2018-12-03T04:08:17.148Z,95043.00
2018-12-03T04:10:48.216Z,95038.00
2018-12-03T04:13:19.028Z,95039.00
2018-12-03T04:15:49.962Z,95040.00
2018-12-03T04:18:21.126Z,95040.00
2018-12-03T04:20:51.982Z,95043.00
2018-12-03T04:23:22.905Z,95043.00
2018-12-03T04:25:53.930Z,95045.00
2018-12-03T04:28:24.965Z,95041.00
2018-12-03T04:30:55.861Z,95041.00
2018-12-03T04:33:26.687Z,95038.00
2018-12-03T04:35:57.621Z,95040.00
2018-12-03T04:38:28.614Z,95045.00
2018-12-03T04:40:59.887Z,95042.00
2018-12-03T04:43:30.881Z,95052.00
2018-12-03T04:46:01.882Z,95040.00
2018-12-03T04:48:33.030Z,95040.00
2018-12-03T04:51:04.042Z,95035.00
2018-12-03T04:53:35.322Z,95033.00
2018-12-03T04:56:06.550Z,95027.00
2018-12-03T04:58:37.390Z,95030.00
2018-12-03T05:01:08.698Z,95025.00
2018-12-03T05:03:39.888Z,95034.00
2018-12-03T05:06:10.942Z,95033.00
2018-12-03T05:08:41.801Z,95036.00
2018-12-03T05:11:12.627Z,95031.00
2018-12-03T05:13:43.541Z,95031.00
2018-12-03T05:16:14.487Z,95028.00
2018-12-03T05:18:45.421Z,95030.00
2018-12-03T05:21:16.682Z,95030.00
2018-12-03T05:23:47.641Z,95035.00
2018-12-03T05:26:18.980Z,95037.00
2018-12-03T05:28:50.020Z,95033.00
2018-12-03T05:31:20.932Z,95036.00
2018-12-03T05:33:52.179Z,95045.00
2018-12-03T05:36:23.107Z,95046.00
2018-12-03T05:38:54.083Z,95047.00
2018-12-03T05:41:25.182Z,95031.00
2018-12-03T05:43:56.380Z,95036.00
2018-12-03T05:46:27.311Z,95038.00
2018-12-03T05:48:58.184Z,95032.00
2018-12-03T05:51:29.290Z,95038.00
2018-12-03T05:54:00.252Z,95038.00
2018-12-03T05:56:31.239Z,95036.00
2018-12-03T05:59:02.405Z,95033.00
2018-12-03T06:01:33.283Z,95037.00
2018-12-03T06:04:04.370Z,95039.00
2018-12-03T06:06:35.398Z,95038.00
2018-12-03T06:09:09.157Z,95036.00
2018-12-03T06:11:40.184Z,95035.00
2018-12-03T06:14:11.127Z,95032.00
2018-12-03T06:16:42.012Z,95037.00
2018-12-03T06:19:12.985Z,95038.00
2018-12-03T06:21:43.884Z,95031.00
2018-12-03T06:24:14.792Z,95022.00
2018-12-03T06:26:45.689Z,95028.00
2018-12-03T06:29:16.653Z,95031.00
2018-12-03T06:31:48.077Z,95034.00
2018-12-03T06:34:19.170Z,95038.00
2018-12-03T06:36:49.993Z,95032.00
2018-12-03T06:39:20.884Z,95033.00
2018-12-03T06:41:51.722Z,95037.00
2018-12-03T06:44:22.690Z,95036.00
2018-12-03T06:46:53.698Z,95035.00
2018-12-03T06:49:24.773Z,95037.00
2018-12-03T06:51:55.771Z,95036.00
2018-12-03T06:54:26.704Z,95036.00
2018-12-03T06:56:57.577Z,95035.00
2018-12-03T06:59:28.692Z,95026.00
2018-12-03T07:01:59.709Z,95027.00
2018-12-03T07:04:30.590Z,95035.00
2018-12-03T07:07:01.425Z,95036.00
2018-12-03T07:09:32.334Z,95034.00
2018-12-03T07:12:03.246Z,95037.00
2018-12-03T07:14:34.281Z,95038.00
2018-12-03T07:17:05.331Z,95040.00
2018-12-03T07:19:36.646Z,95030.00
2018-12-03T07:22:08.038Z,95025.00
2018-12-03T07:24:39.113Z,95030.00
2018-12-03T07:27:10.075Z,95036.00
2018-12-03T07:29:41.003Z,95031.00
2018-12-03T07:32:11.991Z,95036.00
2018-12-03T07:34:42.930Z,95040.00
2018-12-03T07:37:14.168Z,95049.00
2018-12-03T07:39:45.272Z,95050.00
2018-12-03T07:42:16.552Z,95044.00
2018-12-03T07:44:47.650Z,95055.00
2018-12-03T07:47:18.791Z,95046.00
2018-12-03T07:49:49.826Z,95048.00
2018-12-03T07:52:20.933Z,95042.00
2018-12-03T07:54:52.127Z,95042.00
2018-12-03T07:57:23.069Z,95033.00
2018-12-03T07:59:54.142Z,95027.00
2018-12-03T08:02:25.244Z,95031.00
2018-12-03T08:04:56.292Z,95027.00
2018-12-03T08:07:27.276Z,95037.00
2018-12-03T08:09:58.177Z,95033.00
2018-12-03T08:12:29.240Z,95032.00
2018-12-03T08:15:00.082Z,95038.00
2018-12-03T08:17:30.993Z,95045.00
2018-12-03T08:20:01.869Z,95033.00
2018-12-03T08:22:32.822Z,95034.00
2018-12-03T08:25:03.731Z,95038.00
2018-12-03T08:27:34.763Z,95029.00
2018-12-03T08:30:08.221Z,95022.00
2018-12-03T08:32:39.505Z,95025.00
2018-12-03T08:35:14.410Z,95022.00
2018-12-03T08:37:45.628Z,95018.00
2018-12-03T08:40:20.860Z,95022.00
2018-12-03T08:42:55.600Z,95015.00
2018-12-03T08:45:27.343Z,95015.00
2018-12-03T08:47:58.350Z,95014.00
2018-12-03T08:50:30.196Z,95014.00
2018-12-03T08:53:01.340Z,95013.00
2018-12-03T08:55:32.526Z,95015.00
2018-12-03T08:58:03.833Z,95008.00
2018-12-03T09:00:34.963Z,95010.00
2018-12-03T09:03:41.714Z,95004.00
2018-12-03T09:06:14.415Z,95003.00
2018-12-03T09:08:50.353Z,94999.00
2018-12-03T09:11:23.121Z,94995.00
2018-12-03T09:13:54.828Z,95000.00
2018-12-03T09:16:25.934Z,94994.00
2018-12-03T09:18:57.118Z,94990.00
2018-12-03T09:21:28.237Z,94993.00
2018-12-03T09:24:01.603Z,94987.00
2018-12-03T09:26:32.834Z,94984.00
2018-12-03T09:29:03.757Z,94974.00
2018-12-03T09:31:34.621Z,94972.00
2018-12-03T09:34:05.725Z,94969.00
2018-12-03T09:36:36.939Z,94967.00
2018-12-03T09:39:17.219Z,94963.00
2018-12-03T09:41:49.974Z,94966.00
2018-12-03T09:44:21.129Z,94964.00
2018-12-03T09:46:52.111Z,94959.00
2018-12-03T09:49:23.293Z,94954.00
2018-12-03T09:51:54.438Z,94954.00
2018-12-03T09:54:25.426Z,94953.00
2018-12-03T09:56:57.740Z,94949.00
2018-12-03T09:59:28.980Z,94946.00
2018-12-03T10:02:02.807Z,94947.00
2018-12-03T10:04:38.371Z,94935.00
2018-12-03T10:07:09.477Z,94933.00
2018-12-03T10:09:41.806Z,94921.00
2018-12-03T10:12:18.129Z,94923.00
2018-12-03T10:14:44.091Z,94913.00
2018-12-03T10:17:15.105Z,94917.00
2018-12-03T10:19:49.903Z,94917.00
2018-12-03T10:22:21.046Z,94911.00
2018-12-03T10:24:51.945Z,94914.00
2018-12-03T10:27:22.974Z,94909.00
2018-12-03T10:29:53.993Z,94906.00
2018-12-03T10:32:25.081Z,94909.00
2018-12-03T10:34:56.040Z,94904.00
2018-12-03T10:37:27.081Z,94905.00
2018-12-03T10:39:58.227Z,94903.00
2018-12-03T10:42:29.339Z,94908.00
2018-12-03T10:45:00.428Z,94902.00
2018-12-03T10:47:31.527Z,94901.00
2018-12-03T10:50:03.307Z,94899.00
2018-12-03T10:52:34.526Z,94893.00
2018-12-03T10:55:06.097Z,94890.00
2018-12-03T10:57:39.086Z,94882.00
2018-12-03T11:00:22.559Z,94885.00
2018-12-03T11:03:00.164Z,94879.00
2018-12-03T11:05:38.627Z,94874.00
2018-12-03T11:08:09.742Z,94876.00
2018-12-03T11:10:42.070Z,94874.00
2018-12-03T11:13:13.191Z,94863.00
2018-12-03T11:15:44.608Z,94858.00
2018-12-03T11:18:15.594Z,94858.00
2018-12-03T11:20:46.739Z,94866.00
2018-12-03T11:23:23.620Z,94864.00
2018-12-03T11:25:55.163Z,94863.00
2018-12-03T11:28:26.518Z,94864.00
2018-12-03T11:30:57.978Z,94854.00
2018-12-03T11:33:29.895Z,94840.00
2018-12-03T11:36:01.796Z,94845.00
2018-12-03T11:39:44.013Z,94845.00
2018-12-03T11:42:15.520Z,94841.00
2018-12-03T11:44:46.725Z,94841.00
2018-12-03T11:47:17.782Z,94838.00
2018-12-03T11:49:48.695Z,94835.00
2018-12-03T11:52:19.707Z,94835.00
2018-12-03T11:54:50.860Z,94833.00
2018-12-03T11:57:21.806Z,94830.00
2018-12-03T11:59:52.941Z,94824.00
2018-12-03T12:02:24.041Z,94825.00
2018-12-03T12:04:55.191Z,94824.00
2018-12-03T12:07:26.308Z,94822.00
2018-12-03T12:09:57.355Z,94811.00
2018-12-03T12:12:28.435Z,94809.00
2018-12-03T12:14:59.518Z,94813.00
2018-12-03T12:17:30.661Z,94810.00
2018-12-03T12:20:01.586Z,94808.00
2018-12-03T12:22:32.604Z,94804.00
2018-12-03T12:25:03.852Z,94812.00
2018-12-03T12:27:35.047Z,94813.00
2018-12-03T12:30:12.554Z,94805.00
2018-12-03T12:32:43.649Z,94805.00
2018-12-03T12:35:14.865Z,94801.00
2018-12-03T12:37:45.943Z,94794.00
2018-12-03T12:40:17.107Z,94800.00
2018-12-03T12:42:48.526Z,94803.00
2018-12-03T12:45:25.761Z,94802.00
2018-12-03T12:47:56.816Z,94807.00
2018-12-03T12:50:27.907Z,94810.00
2018-12-03T12:52:58.958Z,94805.00
2018-12-03T12:55:29.840Z,94812.00
2018-12-03T12:58:00.953Z,94807.00
2018-12-03T13:00:32.041Z,94804.00
2018-12-03T13:03:03.144Z,94805.00
2018-12-03T13:05:34.302Z,94795.00
2018-12-03T13:08:05.549Z,94794.00
2018-12-03T13:10:36.704Z,94785.00
2018-12-03T13:13:07.922Z,94785.00
2018-12-03T13:15:39.228Z,94781.00
2018-12-03T13:18:10.706Z,94781.00
2018-12-03T13:20:41.913Z,94784.00
2018-12-03T13:23:13.009Z,94780.00
2018-12-03T13:25:44.198Z,94782.00
2018-12-03T13:28:15.411Z,94787.00
2018-12-03T13:30:46.471Z,94787.00
2018-12-03T13:33:17.794Z,94789.00
2018-12-03T13:35:49.144Z,94782.00
2018-12-03T13:38:20.157Z,94779.00
2018-12-03T13:40:51.143Z,94775.00
2018-12-03T13:43:22.246Z,94776.00
2018-12-03T13:45:53.567Z,94779.00
2018-12-03T13:48:25.044Z,94776.00
2018-12-03T13:50:56.152Z,94775.00
2018-12-03T13:53:27.237Z,94773.00
2018-12-03T13:55:58.350Z,94779.00
2018-12-03T13:58:29.344Z,94773.00
2018-12-03T14:01:00.496Z,94773.00
2018-12-03T14:03:35.042Z,94775.00
2018-12-03T14:06:22.880Z,94772.00
2018-12-03T14:11:18.587Z,94775.00
2018-12-03T14:14:14.949Z,94772.00
2018-12-03T14:16:58.858Z,94776.00
2018-12-03T14:19:32.305Z,94774.00
2018-12-03T14:22:19.005Z,94770.00
2018-12-03T14:24:50.153Z,94776.00
2018-12-03T14:27:22.175Z,94770.00
2018-12-03T14:29:53.715Z,94771.00
2018-12-03T14:32:25.022Z,94775.00
2018-12-03T14:34:56.299Z,94780.00
2018-12-03T14:37:27.520Z,94787.00
2018-12-03T14:39:58.651Z,94786.00
2018-12-03T14:42:30.038Z,94786.00
2018-12-03T14:45:01.502Z,94782.00
2018-12-03T14:47:32.810Z,94786.00
2018-12-03T14:50:05.107Z,94786.00
2018-12-03T14:52:36.676Z,94787.00
2018-12-03T14:55:09.257Z,94784.00
2018-12-03T14:57:40.585Z,94782.00
2018-12-03T15:00:15.405Z,94789.00
2018-12-03T15:02:46.645Z,94789.00
2018-12-03T15:05:17.929Z,94780.00
2018-12-03T15:07:49.223Z,94785.00
2018-12-03T15:10:20.431Z,94786.00
2018-12-03T15:12:52.178Z,94788.00
2018-12-03T15:15:23.653Z,94792.00
2018-12-03T15:17:55.129Z,94788.00
2018-12-03T15:20:26.340Z,94791.00
2018-12-03T15:22:57.591Z,94792.00
2018-12-03T15:25:29.142Z,94794.00
2018-12-03T15:28:00.381Z,94791.00
2018-12-03T15:30:31.688Z,94801.00
2018-12-03T15:33:03.799Z,94801.00
2018-12-03T15:35:35.008Z,94798.00
2018-12-03T15:38:06.236Z,94797.00
2018-12-03T15:40:37.412Z,94799.00
2018-12-03T15:43:08.843Z,94797.00
2018-12-03T15:45:40.106Z,94797.00
2018-12-03T15:48:11.476Z,94797.00
2018-12-03T15:50:42.992Z,94803.00
2018-12-03T15:53:14.326Z,94800.00
2018-12-03T15:55:45.739Z,94796.00
2018-12-03T15:58:17.492Z,94801.00
2018-12-03T16:00:48.683Z,94803.00
2018-12-03T16:03:19.944Z,94817.00
2018-12-03T16:05:51.341Z,94818.00
2018-12-03T16:08:22.981Z,94815.00
2018-12-03T16:10:54.386Z,94813.00
2018-12-03T16:13:25.759Z,94812.00
2018-12-03T16:15:57.122Z,94817.00
2018-12-03T16:18:28.419Z,94816.00
2018-12-03T16:20:59.812Z,94818.00
2018-12-03T16:23:31.238Z,94825.00
2018-12-03T16:26:02.307Z,94822.00
2018-12-03T16:28:33.646Z,94824.00
2018-12-03T16:31:05.149Z,94828.00
2018-12-03T16:33:36.601Z,94830.00
2018-12-03T16:36:07.923Z,94837.00
2018-12-03T16:38:39.424Z,94827.00
2018-12-03T16:41:10.708Z,94829.00
2018-12-03T16:43:42.882Z,94828.00
2018-12-03T16:46:14.142Z,94829.00
2018-12-03T16:59:42.581Z,94835.73
2018-12-03T17:04:55.669Z,94843.26
2018-12-03T17:07:28.106Z,94837.08
2018-12-03T17:10:00.202Z,94849.14
2018-12-03T17:12:32.865Z,94842.56
2018-12-03T17:15:05.894Z,94841.95
2018-12-03T17:17:38.455Z,94840.16
2018-12-03T17:20:19.666Z,94837.70
2018-12-03T17:23:15.984Z,94837.86
2018-12-03T17:25:48.523Z,94838.21
2018-12-03T17:28:20.973Z,94835.94
2018-12-03T17:30:53.204Z,94833.05
2018-12-03T17:33:25.637Z,94836.17
2018-12-03T17:35:57.700Z,94837.46
2018-12-03T17:38:29.920Z,94834.41
2018-12-03T17:41:02.094Z,94840.85
2018-12-03T17:43:34.793Z,94833.94
2018-12-03T17:46:07.551Z,94834.27
2018-12-03T17:48:40.003Z,94833.12
2018-12-03T17:51:13.176Z,94824.77
2018-12-03T17:53:45.537Z,94826.69
2018-12-03T17:56:18.279Z,94824.56
2018-12-03T17:58:50.622Z,94827.50
2018-12-03T18:01:23.226Z,94820.39
2018-12-03T18:03:55.521Z,94817.84
2018-12-03T18:06:28.690Z,94820.72
2018-12-03T18:09:01.200Z,94817.20
2018-12-03T18:11:33.826Z,94810.11
2018-12-03T18:14:06.620Z,94808.96
2018-12-03T18:16:39.476Z,94810.56
2018-12-03T18:19:12.412Z,94807.50
2018-12-03T18:21:44.360Z,94807.83
2018-12-03T18:24:16.939Z,94805.57
2018-12-03T18:26:48.971Z,94806.84
2018-12-03T18:29:22.405Z,94806.49
2018-12-03T18:31:55.380Z,94804.08
2018-12-03T18:34:28.230Z,94804.55
2018-12-03T18:37:00.886Z,94806.93
2018-12-03T18:39:33.510Z,94809.34
2018-12-03T18:42:06.259Z,94807.11
2018-12-03T18:44:38.688Z,94807.58
2018-12-03T18:47:11.530Z,94807.45
2018-12-03T18:49:48.007Z,94801.39
2018-12-03T18:52:21.711Z,94805.08
2018-12-03T18:54:54.293Z,94807.13
2018-12-03T18:57:27.139Z,94806.50
2018-12-03T18:59:59.186Z,94809.87
2018-12-03T19:02:31.285Z,94812.76
2018-12-03T19:05:03.329Z,94812.59
2018-12-03T19:07:35.456Z,94815.96
2018-12-03T19:10:09.449Z,94811.98
2018-12-03T19:12:41.983Z,94809.90
2018-12-03T19:15:15.493Z,94812.66
2018-12-03T19:17:47.886Z,94813.82
2018-12-03T19:20:22.438Z,94805.77
2018-12-03T19:22:54.197Z,94800.92
2018-12-03T19:25:26.587Z,94805.59
2018-12-03T19:27:58.846Z,94811.37
2018-12-03T19:30:31.516Z,94810.61
2018-12-03T19:33:03.815Z,94808.23
2018-12-03T19:35:36.328Z,94806.96
2018-12-03T19:38:09.132Z,94814.11
2018-12-03T19:40:41.816Z,94808.63
2018-12-03T19:43:14.043Z,94807.51
2018-12-03T19:45:46.307Z,94803.95
2018-12-03T19:48:18.410Z,94805.27
2018-12-03T19:50:50.437Z,94801.25
2018-12-03T19:53:22.486Z,94802.20
2018-12-03T19:55:55.888Z,94799.51
2018-12-03T19:58:36.880Z,94792.91
2018-12-03T20:01:09.344Z,94785.02
2018-12-03T20:03:41.413Z,94786.01
2018-12-03T20:06:13.527Z,94790.98
2018-12-03T20:08:45.556Z,94786.66
2018-12-03T20:11:19.551Z,94791.46
2018-12-03T20:13:52.462Z,94788.09
2018-12-03T20:16:25.085Z,94787.14
2018-12-03T20:18:57.451Z,94781.19
2018-12-03T20:21:30.053Z,94782.16
2018-12-03T20:24:07.276Z,94780.37
2018-12-03T20:26:55.979Z,94774.44
2018-12-03T20:30:34.852Z,94778.77
2018-12-03T20:33:14.138Z,94779.25
2018-12-03T20:37:01.014Z,94772.69
2018-12-03T20:41:42.827Z,94772.52
2018-12-03T20:44:35.432Z,94772.67
2018-12-03T20:47:19.726Z,94780.89
2018-12-03T20:51:06.738Z,94781.40
2018-12-03T20:53:45.971Z,94780.75
2018-12-03T20:56:18.159Z,94780.92
2018-12-03T20:58:51.311Z,94769.86
2018-12-03T21:01:23.587Z,94769.85
2018-12-03T21:03:55.836Z,94771.95
2018-12-03T21:06:28.140Z,94784.93
2018-12-03T21:09:00.620Z,94778.37
2018-12-03T21:11:33.019Z,94782.34
2018-12-03T21:14:06.168Z,94773.03
2018-12-03T21:16:38.233Z,94775.13
2018-12-03T21:19:11.097Z,94771.13
2018-12-03T21:21:43.479Z,94776.90
2018-12-03T21:24:15.434Z,94779.13
2018-12-03T21:26:47.249Z,94780.72
2018-12-03T21:29:19.228Z,94780.55
2018-12-03T21:31:51.637Z,94785.36
2018-12-03T21:34:24.650Z,94780.22
2018-12-03T21:36:56.873Z,94777.47
2018-12-03T21:39:28.918Z,94772.83
2018-12-03T21:42:01.347Z,94772.47
2018-12-03T21:44:33.484Z,94772.95
2018-12-03T21:47:06.555Z,94766.20
2018-12-03T21:49:38.932Z,94770.86
2018-12-03T21:52:11.136Z,94771.05
2018-12-03T21:54:43.586Z,94764.11
2018-12-03T21:57:16.387Z,94764.58
2018-12-03T21:59:48.712Z,94763.63
2018-12-03T22:02:24.067Z,94759.75
2018-12-03T22:04:54.764Z,94751.03
2018-12-03T22:07:27.071Z,94753.76
2018-12-03T22:10:00.030Z,94757.94
2018-12-03T22:12:32.985Z,94758.09
2018-12-03T22:15:05.449Z,94752.77
2018-12-03T22:17:37.744Z,94755.16
2018-12-03T22:20:12.522Z,94750.83
2018-12-03T22:22:44.593Z,94745.84
2018-12-03T22:25:17.231Z,94746.47
2018-12-03T22:27:49.590Z,94750.02
2018-12-03T22:30:21.562Z,94746.94
2018-12-03T22:32:53.480Z,94738.55
2018-12-03T22:35:25.406Z,94732.30
2018-12-03T22:37:57.264Z,94723.62
2018-12-03T22:40:29.262Z,94728.79
2018-12-03T22:43:01.054Z,94727.17
2018-12-03T22:45:33.972Z,94724.78
2018-12-03T22:48:07.122Z,94721.36
2018-12-03T22:50:39.217Z,94718.44
2018-12-03T22:53:11.160Z,94719.06
2018-12-03T22:55:43.579Z,94716.78
2018-12-03T22:58:15.488Z,94713.86
2018-12-03T23:00:53.851Z,94708.54
2018-12-03T23:03:26.779Z,94705.17
2018-12-03T23:05:58.882Z,94703.92
2018-12-03T23:08:31.096Z,94705.20
2018-12-03T23:11:03.880Z,94704.37
2018-12-03T23:13:35.872Z,94704.20
2018-12-03T23:16:08.245Z,94699.56
2018-12-03T23:18:41.067Z,94697.46
2018-12-03T23:21:13.123Z,94694.61
2018-12-03T23:23:45.323Z,94693.30
2018-12-03T23:26:18.338Z,94694.53
2018-12-03T23:28:50.172Z,94691.62
2018-12-03T23:31:22.254Z,94691.45
2018-12-03T23:33:54.437Z,94689.02
2018-12-03T23:36:26.292Z,94685.80
2018-12-03T23:38:58.759Z,94685.84
2018-12-03T23:41:31.448Z,94688.56
2018-12-03T23:44:03.510Z,94686.95
2018-12-03T23:46:36.137Z,94684.89
2018-12-03T23:49:08.341Z,94687.95
2018-12-03T23:51:41.217Z,94687.31
2018-12-03T23:54:13.450Z,94684.59
2018-12-03T23:56:45.654Z,94685.39
2018-12-03T23:59:18.553Z,94677.79
